sensor_id;sensor_type;location;lat;lon;timestamp;pressure;altitude;pressure_sealevel;temperature;humidity
21520;BME280;10921;53.614;9.882;2023-08-24T00:01:54;101631.34;;;20.71;86.87
21520;BME280;10921;53.614;9.882;2023-08-24T00:04:20;101631.16;;;20.58;86.65
21520;BME280;10921;53.614;9.882;2023-08-24T00:06:47;101634.63;;;20.52;86.47
21520;BME280;10921;53.614;9.882;2023-08-24T00:09:13;101585.97;;;20.21;87.33
21520;BME280;10921;53.614;9.882;2023-08-24T00:11:41;101633.03;;;20.43;87.88
21520;BME280;10921;53.614;9.882;2023-08-24T00:14:09;101623.44;;;20.32;87.97
21520;BME280;10921;53.614;9.882;2023-08-24T00:16:36;101614.09;;;20.20;87.39
21520;BME280;10921;53.614;9.882;2023-08-24T00:19:02;101595.50;;;20.02;87.39
21520;BME280;10921;53.614;9.882;2023-08-24T00:21:29;101610.72;;;20.03;88.07
21520;BME280;10921;53.614;9.882;2023-08-24T00:23:56;101613.16;;;19.98;88.23
21520;BME280;10921;53.614;9.882;2023-08-24T00:26:22;101608.56;;;19.84;88.74
21520;BME280;10921;53.614;9.882;2023-08-24T00:28:49;101625.09;;;19.89;89.07
21520;BME280;10921;53.614;9.882;2023-08-24T00:31:16;101562.66;;;19.45;89.74
21520;BME280;10921;53.614;9.882;2023-08-24T00:33:43;101614.69;;;19.78;90.48
21520;BME280;10921;53.614;9.882;2023-08-24T00:36:09;101616.84;;;19.68;90.17
21520;BME280;10921;53.614;9.882;2023-08-24T00:38:36;101616.84;;;19.68;89.82
21520;BME280;10921;53.614;9.882;2023-08-24T00:41:03;101630.06;;;19.63;90.58
21520;BME280;10921;53.614;9.882;2023-08-24T00:43:30;101603.94;;;19.47;90.73
21520;BME280;10921;53.614;9.882;2023-08-24T00:45:59;101620.59;;;19.59;91.94
21520;BME280;10921;53.614;9.882;2023-08-24T00:48:27;101621.19;;;19.54;91.43
21520;BME280;10921;53.614;9.882;2023-08-24T00:50:56;101620.16;;;19.47;91.90
21520;BME280;10921;53.614;9.882;2023-08-24T00:53:24;101606.88;;;19.38;92.48
21520;BME280;10921;53.614;9.882;2023-08-24T00:55:52;101618.56;;;19.38;91.84
21520;BME280;10921;53.614;9.882;2023-08-24T00:58:20;101621.91;;;19.40;91.91
21520;BME280;10921;53.614;9.882;2023-08-24T01:00:48;101592.50;;;19.14;92.00
21520;BME280;10921;53.614;9.882;2023-08-24T01:03:15;101628.91;;;19.35;92.01
21520;BME280;10921;53.614;9.882;2023-08-24T01:05:43;101621.66;;;19.27;92.29
21520;BME280;10921;53.614;9.882;2023-08-24T01:08:10;101633.72;;;19.24;92.09
21520;BME280;10921;53.614;9.882;2023-08-24T01:13:27;101549.06;;;18.62;93.74
21520;BME280;10921;53.614;9.882;2023-08-24T01:16:13;101635.78;;;19.14;94.33
21520;BME280;10921;53.614;9.882;2023-08-24T01:18:43;101637.53;;;19.07;94.02
21520;BME280;10921;53.614;9.882;2023-08-24T01:21:12;101583.47;;;18.68;94.80
21520;BME280;10921;53.614;9.882;2023-08-24T01:26:19;101641.00;;;18.93;93.77
21520;BME280;10921;53.614;9.882;2023-08-24T01:28:47;101615.72;;;18.70;93.40
21520;BME280;10921;53.614;9.882;2023-08-24T01:31:14;101599.91;;;18.58;93.86
21520;BME280;10921;53.614;9.882;2023-08-24T01:33:45;101604.31;;;18.59;93.81
21520;BME280;10921;53.614;9.882;2023-08-24T01:36:14;101646.47;;;18.77;93.73
21520;BME280;10921;53.614;9.882;2023-08-24T01:38:41;101645.13;;;18.73;93.69
21520;BME280;10921;53.614;9.882;2023-08-24T01:41:22;101645.66;;;18.68;94.59
21520;BME280;10921;53.614;9.882;2023-08-24T01:43:53;101643.50;;;18.64;94.68
21520;BME280;10921;53.614;9.882;2023-08-24T01:46:21;101647.56;;;18.59;94.30
21520;BME280;10921;53.614;9.882;2023-08-24T01:48:49;101609.56;;;18.37;94.64
21520;BME280;10921;53.614;9.882;2023-08-24T01:51:17;101640.25;;;18.52;94.96
21520;BME280;10921;53.614;9.882;2023-08-24T01:53:44;101640.81;;;18.47;94.75
21520;BME280;10921;53.614;9.882;2023-08-24T01:56:12;101643.00;;;18.44;95.21
21520;BME280;10921;53.614;9.882;2023-08-24T01:58:39;101629.00;;;18.40;95.40
21520;BME280;10921;53.614;9.882;2023-08-24T02:01:07;101624.63;;;18.31;95.80
21520;BME280;10921;53.614;9.882;2023-08-24T02:03:35;101638.44;;;18.36;96.41
21520;BME280;10921;53.614;9.882;2023-08-24T02:06:02;101625.31;;;18.25;96.57
21520;BME280;10921;53.614;9.882;2023-08-24T02:08:28;101605.22;;;18.19;96.60
21520;BME280;10921;53.614;9.882;2023-08-24T02:10:55;101626.00;;;18.19;96.32
21520;BME280;10921;53.614;9.882;2023-08-24T02:13:21;101614.88;;;18.14;96.54
21520;BME280;10921;53.614;9.882;2023-08-24T02:15:48;101626.69;;;18.13;96.18
21520;BME280;10921;53.614;9.882;2023-08-24T02:18:14;101620.28;;;18.06;96.34
21520;BME280;10921;53.614;9.882;2023-08-24T02:20:41;101611.69;;;17.94;96.61
21520;BME280;10921;53.614;9.882;2023-08-24T02:23:08;101579.00;;;17.81;97.00
21520;BME280;10921;53.614;9.882;2023-08-24T02:25:34;101599.41;;;17.83;97.40
21520;BME280;10921;53.614;9.882;2023-08-24T02:28:00;101609.84;;;17.95;98.09
21520;BME280;10921;53.614;9.882;2023-08-24T02:30:27;101600.41;;;17.82;98.25
21520;BME280;10921;53.614;9.882;2023-08-24T02:32:54;101618.63;;;17.88;98.22
21520;BME280;10921;53.614;9.882;2023-08-24T02:35:20;101612.75;;;17.85;97.91
21520;BME280;10921;53.614;9.882;2023-08-24T02:37:47;101616.63;;;17.82;97.83
21520;BME280;10921;53.614;9.882;2023-08-24T02:40:16;101612.41;;;17.80;97.89
21520;BME280;10921;53.614;9.882;2023-08-24T02:42:42;101599.56;;;17.74;97.82
21520;BME280;10921;53.614;9.882;2023-08-24T02:45:09;101583.00;;;17.61;98.44
21520;BME280;10921;53.614;9.882;2023-08-24T02:47:35;101603.47;;;17.71;98.33
21520;BME280;10921;53.614;9.882;2023-08-24T02:50:04;101570.38;;;17.53;98.73
21520;BME280;10921;53.614;9.882;2023-08-24T02:52:32;101596.56;;;17.69;98.48
21520;BME280;10921;53.614;9.882;2023-08-24T02:54:59;101566.81;;;17.44;98.13
21520;BME280;10921;53.614;9.882;2023-08-24T02:57:25;101603.44;;;17.63;98.06
21520;BME280;10921;53.614;9.882;2023-08-24T02:59:52;101580.16;;;17.46;97.92
21520;BME280;10921;53.614;9.882;2023-08-24T03:02:18;101601.22;;;17.58;97.97
21520;BME280;10921;53.614;9.882;2023-08-24T03:04:45;101603.28;;;17.56;98.28
21520;BME280;10921;53.614;9.882;2023-08-24T03:07:11;101566.50;;;17.39;98.23
21520;BME280;10921;53.614;9.882;2023-08-24T03:09:38;101556.19;;;17.27;98.81
21520;BME280;10921;53.614;9.882;2023-08-24T03:12:04;101597.69;;;17.50;98.85
21520;BME280;10921;53.614;9.882;2023-08-24T03:14:31;101573.06;;;17.29;98.45
21520;BME280;10921;53.614;9.882;2023-08-24T03:16:58;101590.25;;;17.44;98.23
21520;BME280;10921;53.614;9.882;2023-08-24T03:19:24;101604.75;;;17.43;98.22
21520;BME280;10921;53.614;9.882;2023-08-24T03:21:51;101593.31;;;17.41;98.42
21520;BME280;10921;53.614;9.882;2023-08-24T03:24:17;101593.66;;;17.38;98.46
21520;BME280;10921;53.614;9.882;2023-08-24T03:26:44;101587.75;;;17.34;98.62
21520;BME280;10921;53.614;9.882;2023-08-24T03:29:10;101589.75;;;17.32;98.44
21520;BME280;10921;53.614;9.882;2023-08-24T03:31:37;101577.44;;;17.21;98.30
21520;BME280;10921;53.614;9.882;2023-08-24T03:34:03;101583.38;;;17.25;98.32
21520;BME280;10921;53.614;9.882;2023-08-24T03:36:30;101577.78;;;17.18;98.49
21520;BME280;10921;53.614;9.882;2023-08-24T03:38:57;101584.88;;;17.19;98.85
21520;BME280;10921;53.614;9.882;2023-08-24T03:41:23;101578.94;;;17.16;99.33
21520;BME280;10921;53.614;9.882;2023-08-24T03:43:50;101583.50;;;17.15;99.21
21520;BME280;10921;53.614;9.882;2023-08-24T03:46:16;101588.06;;;17.15;99.31
21520;BME280;10921;53.614;9.882;2023-08-24T03:48:43;101586.19;;;17.15;99.74
21520;BME280;10921;53.614;9.882;2023-08-24T03:51:09;101587.22;;;17.14;100.00
21520;BME280;10921;53.614;9.882;2023-08-24T03:53:36;101573.41;;;17.09;100.00
21520;BME280;10921;53.614;9.882;2023-08-24T03:56:02;101587.53;;;17.11;100.00
21520;BME280;10921;53.614;9.882;2023-08-24T03:58:29;101572.38;;;17.02;99.60
21520;BME280;10921;53.614;9.882;2023-08-24T04:00:55;101578.78;;;17.09;99.88
21520;BME280;10921;53.614;9.882;2023-08-24T04:03:22;101576.38;;;16.98;100.00
21520;BME280;10921;53.614;9.882;2023-08-24T04:05:48;101590.22;;;17.03;100.00
21520;BME280;10921;53.614;9.882;2023-08-24T04:08:15;101587.38;;;17.05;100.00
21520;BME280;10921;53.614;9.882;2023-08-24T04:10:41;101569.47;;;16.87;100.00
21520;BME280;10921;53.614;9.882;2023-08-24T04:13:08;101587.69;;;17.02;100.00
21520;BME280;10921;53.614;9.882;2023-08-24T04:15:34;101570.31;;;16.96;100.00
21520;BME280;10921;53.614;9.882;2023-08-24T04:18:01;101578.06;;;16.99;100.00
21520;BME280;10921;53.614;9.882;2023-08-24T04:20:28;101571.16;;;16.97;100.00
21520;BME280;10921;53.614;9.882;2023-08-24T04:22:54;101548.06;;;16.78;100.00
21520;BME280;10921;53.614;9.882;2023-08-24T04:25:22;101555.81;;;16.89;100.00
21520;BME280;10921;53.614;9.882;2023-08-24T04:27:48;101568.66;;;16.95;100.00
21520;BME280;10921;53.614;9.882;2023-08-24T04:30:16;101570.66;;;16.93;100.00
21520;BME280;10921;53.614;9.882;2023-08-24T04:32:42;101571.31;;;16.87;100.00
21520;BME280;10921;53.614;9.882;2023-08-24T04:35:09;101579.59;;;16.94;100.00
21520;BME280;10921;53.614;9.882;2023-08-24T04:37:36;101581.63;;;16.92;100.00
21520;BME280;10921;53.614;9.882;2023-08-24T04:40:05;101559.16;;;16.75;100.00
21520;BME280;10921;53.614;9.882;2023-08-24T04:42:33;101581.09;;;16.88;100.00
21520;BME280;10921;53.614;9.882;2023-08-24T04:45:00;101578.56;;;16.86;100.00
21520;BME280;10921;53.614;9.882;2023-08-24T04:47:27;101557.97;;;16.69;100.00
21520;BME280;10921;53.614;9.882;2023-08-24T04:49:54;101588.81;;;16.83;100.00
21520;BME280;10921;53.614;9.882;2023-08-24T04:52:20;101582.41;;;16.76;100.00
21520;BME280;10921;53.614;9.882;2023-08-24T04:54:47;101592.69;;;16.80;100.00
21520;BME280;10921;53.614;9.882;2023-08-24T04:57:14;101594.88;;;16.77;100.00
21520;BME280;10921;53.614;9.882;2023-08-24T04:59:40;101587.81;;;16.76;100.00
21520;BME280;10921;53.614;9.882;2023-08-24T05:02:07;101592.88;;;16.79;100.00
21520;BME280;10921;53.614;9.882;2023-08-24T05:04:34;101545.91;;;16.47;100.00
21520;BME280;10921;53.614;9.882;2023-08-24T05:07:00;101583.53;;;16.65;100.00
21520;BME280;10921;53.614;9.882;2023-08-24T05:09:27;101603.81;;;16.77;100.00
21520;BME280;10921;53.614;9.882;2023-08-24T05:11:53;101598.75;;;16.74;100.00
21520;BME280;10921;53.614;9.882;2023-08-24T05:14:20;101601.13;;;16.77;100.00
21520;BME280;10921;53.614;9.882;2023-08-24T05:16:46;101576.25;;;16.58;100.00
21520;BME280;10921;53.614;9.882;2023-08-24T05:19:13;101607.34;;;16.78;100.00
21520;BME280;10921;53.614;9.882;2023-08-24T05:21:39;101580.19;;;16.63;100.00
21520;BME280;10921;53.614;9.882;2023-08-24T05:24:06;101596.72;;;16.76;100.00
21520;BME280;10921;53.614;9.882;2023-08-24T05:26:33;101551.63;;;16.52;100.00
21520;BME280;10921;53.614;9.882;2023-08-24T05:29:00;101607.88;;;16.90;100.00
21520;BME280;10921;53.614;9.882;2023-08-24T05:31:27;101621.38;;;16.90;100.00
21520;BME280;10921;53.614;9.882;2023-08-24T05:33:53;101628.97;;;16.94;100.00
21520;BME280;10921;53.614;9.882;2023-08-24T05:36:26;101622.56;;;16.95;100.00
21520;BME280;10921;53.614;9.882;2023-08-24T05:38:57;101622.94;;;17.08;100.00
21520;BME280;10921;53.614;9.882;2023-08-24T05:41:26;101618.72;;;17.14;100.00
21520;BME280;10921;53.614;9.882;2023-08-24T05:43:53;101619.75;;;17.21;100.00
21520;BME280;10921;53.614;9.882;2023-08-24T05:46:19;101614.72;;;17.34;100.00
21520;BME280;10921;53.614;9.882;2023-08-24T05:48:46;101609.34;;;17.50;100.00
21520;BME280;10921;53.614;9.882;2023-08-24T05:51:13;101571.22;;;17.45;100.00
21520;BME280;10921;53.614;9.882;2023-08-24T05:53:40;101607.16;;;17.78;100.00
21520;BME280;10921;53.614;9.882;2023-08-24T05:56:07;101615.06;;;17.88;100.00
21520;BME280;10921;53.614;9.882;2023-08-24T05:58:33;101575.44;;;17.72;100.00
21520;BME280;10921;53.614;9.882;2023-08-24T06:01:00;101618.09;;;18.09;100.00
21520;BME280;10921;53.614;9.882;2023-08-24T06:03:27;101620.78;;;18.17;100.00
21520;BME280;10921;53.614;9.882;2023-08-24T06:05:53;101620.09;;;18.23;100.00
21520;BME280;10921;53.614;9.882;2023-08-24T06:08:20;101613.16;;;18.29;100.00
21520;BME280;10921;53.614;9.882;2023-08-24T06:10:46;101619.38;;;18.38;100.00
21520;BME280;10921;53.614;9.882;2023-08-24T06:13:13;101612.44;;;18.43;100.00
21520;BME280;10921;53.614;9.882;2023-08-24T06:15:40;101603.81;;;18.48;100.00
21520;BME280;10921;53.614;9.882;2023-08-24T06:18:06;101566.72;;;18.25;100.00
21520;BME280;10921;53.614;9.882;2023-08-24T06:20:33;101588.41;;;18.56;100.00
21520;BME280;10921;53.614;9.882;2023-08-24T06:22:59;101580.25;;;18.65;100.00
21520;BME280;10921;53.614;9.882;2023-08-24T06:25:26;101575.84;;;18.72;100.00
21520;BME280;10921;53.614;9.882;2023-08-24T06:27:53;101493.97;;;18.24;100.00
21520;BME280;10921;53.614;9.882;2023-08-24T06:30:19;101580.16;;;18.89;100.00
21520;BME280;10921;53.614;9.882;2023-08-24T06:32:46;101571.13;;;18.96;100.00
21520;BME280;10921;53.614;9.882;2023-08-24T06:35:12;101538.16;;;18.78;100.00
21520;BME280;10921;53.614;9.882;2023-08-24T06:37:42;101563.34;;;19.02;100.00
21520;BME280;10921;53.614;9.882;2023-08-24T06:40:09;101571.16;;;19.19;100.00
21520;BME280;10921;53.614;9.882;2023-08-24T06:42:36;101575.84;;;19.25;100.00
21520;BME280;10921;53.614;9.882;2023-08-24T06:45:03;101466.22;;;18.69;100.00
21520;BME280;10921;53.614;9.882;2023-08-24T06:47:30;101504.69;;;19.02;100.00
21520;BME280;10921;53.614;9.882;2023-08-24T06:49:56;101566.88;;;19.48;99.54
21520;BME280;10921;53.614;9.882;2023-08-24T06:52:23;101557.22;;;19.53;98.88
21520;BME280;10921;53.614;9.882;2023-08-24T06:54:51;101550.16;;;19.67;97.27
21520;BME280;10921;53.614;9.882;2023-08-24T06:57:20;101526.72;;;19.74;95.95
21520;BME280;10921;53.614;9.882;2023-08-24T06:59:46;101518.53;;;19.82;94.41
21520;BME280;10921;53.614;9.882;2023-08-24T07:02:13;101504.44;;;20.16;91.82
21520;BME280;10921;53.614;9.882;2023-08-24T07:04:40;101540.91;;;20.64;87.18
21520;BME280;10921;53.614;9.882;2023-08-24T07:07:06;101543.81;;;20.99;84.89
21520;BME280;10921;53.614;9.882;2023-08-24T07:09:34;101525.59;;;21.14;81.54
21520;BME280;10921;53.614;9.882;2023-08-24T07:12:04;101560.22;;;21.55;79.44
21520;BME280;10921;53.614;9.882;2023-08-24T07:14:33;101559.09;;;21.70;75.74
21520;BME280;10921;53.614;9.882;2023-08-24T07:17:00;101557.72;;;21.81;74.95
21520;BME280;10921;53.614;9.882;2023-08-24T07:19:26;101557.97;;;21.86;74.19
21520;BME280;10921;53.614;9.882;2023-08-24T07:21:53;101563.25;;;21.94;74.08
21520;BME280;10921;53.614;9.882;2023-08-24T07:24:19;101553.16;;;21.82;73.33
21520;BME280;10921;53.614;9.882;2023-08-24T07:27:00;101572.44;;;21.93;73.93
21520;BME280;10921;53.614;9.882;2023-08-24T07:29:26;101566.81;;;21.95;74.35
21520;BME280;10921;53.614;9.882;2023-08-24T07:31:53;101537.69;;;21.82;73.24
21520;BME280;10921;53.614;9.882;2023-08-24T07:34:20;101559.38;;;22.03;74.16
21520;BME280;10921;53.614;9.882;2023-08-24T07:36:49;101536.78;;;22.03;73.40
21520;BME280;10921;53.614;9.882;2023-08-24T07:39:16;101524.44;;;22.00;73.26
21520;BME280;10921;53.614;9.882;2023-08-24T07:41:42;101559.50;;;22.23;71.41
21520;BME280;10921;53.614;9.882;2023-08-24T07:44:09;101561.44;;;22.36;71.66
21520;BME280;10921;53.614;9.882;2023-08-24T07:46:35;101541.56;;;22.35;70.13
21520;BME280;10921;53.614;9.882;2023-08-24T07:49:02;101554.88;;;22.65;70.06
21520;BME280;10921;53.614;9.882;2023-08-24T07:51:28;101549.50;;;22.78;69.23
21520;BME280;10921;53.614;9.882;2023-08-24T07:53:55;101553.97;;;22.99;68.76
21520;BME280;10921;53.614;9.882;2023-08-24T07:56:21;101558.59;;;23.11;68.05
21520;BME280;10921;53.614;9.882;2023-08-24T07:58:49;101560.47;;;23.24;65.88
21520;BME280;10921;53.614;9.882;2023-08-24T08:01:15;101552.75;;;23.28;63.79
21520;BME280;10921;53.614;9.882;2023-08-24T08:03:42;101539.34;;;23.33;63.38
21520;BME280;10921;53.614;9.882;2023-08-24T08:06:08;101491.16;;;23.07;62.51
21520;BME280;10921;53.614;9.882;2023-08-24T08:08:35;101528.44;;;23.39;62.47
21520;BME280;10921;53.614;9.882;2023-08-24T08:11:04;101535.16;;;23.43;62.83
21520;BME280;10921;53.614;9.882;2023-08-24T08:13:31;101534.53;;;23.41;62.00
21520;BME280;10921;53.614;9.882;2023-08-24T08:16:05;101522.41;;;23.37;64.08
21520;BME280;10921;53.614;9.882;2023-08-24T08:18:33;101513.81;;;23.34;63.44
21520;BME280;10921;53.614;9.882;2023-08-24T08:21:08;101520.28;;;23.46;64.67
21520;BME280;10921;53.614;9.882;2023-08-24T08:23:35;101504.56;;;23.41;64.85
21520;BME280;10921;53.614;9.882;2023-08-24T08:26:02;101501.63;;;23.43;63.87
21520;BME280;10921;53.614;9.882;2023-08-24T08:28:29;101519.88;;;23.56;63.06
21520;BME280;10921;53.614;9.882;2023-08-24T08:30:56;101521.16;;;23.66;61.79
21520;BME280;10921;53.614;9.882;2023-08-24T08:33:22;101511.50;;;23.77;61.04
21520;BME280;10921;53.614;9.882;2023-08-24T08:35:50;101494.91;;;23.85;61.05
21520;BME280;10921;53.614;9.882;2023-08-24T08:38:16;101441.09;;;23.61;60.00
21520;BME280;10921;53.614;9.882;2023-08-24T08:40:43;101512.88;;;24.12;60.16
21520;BME280;10921;53.614;9.882;2023-08-24T08:43:12;101509.91;;;24.20;60.23
21520;BME280;10921;53.614;9.882;2023-08-24T08:45:39;101481.03;;;24.06;59.33
21520;BME280;10921;53.614;9.882;2023-08-24T08:48:06;101505.28;;;24.21;60.99
21520;BME280;10921;53.614;9.882;2023-08-24T08:50:34;101506.72;;;24.37;59.31
21520;BME280;10921;53.614;9.882;2023-08-24T08:53:01;101490.38;;;24.37;61.47
21520;BME280;10921;53.614;9.882;2023-08-24T08:55:28;101451.19;;;24.25;57.35
21520;BME280;10921;53.614;9.882;2023-08-24T08:57:58;101500.72;;;24.60;56.89
21520;BME280;10921;53.614;9.882;2023-08-24T09:00:25;101509.88;;;24.78;57.59
21520;BME280;10921;53.614;9.882;2023-08-24T09:02:53;101504.31;;;24.92;56.92
21520;BME280;10921;53.614;9.882;2023-08-24T09:05:20;101430.81;;;24.65;58.66
21520;BME280;10921;53.614;9.882;2023-08-24T09:07:47;101489.91;;;25.16;51.91
21520;BME280;10921;53.614;9.882;2023-08-24T09:10:14;101498.63;;;25.31;54.46
21520;BME280;10921;53.614;9.882;2023-08-24T09:12:41;101507.56;;;25.38;54.23
21520;BME280;10921;53.614;9.882;2023-08-24T09:15:08;101516.88;;;25.55;53.15
21520;BME280;10921;53.614;9.882;2023-08-24T09:17:35;101516.56;;;25.70;54.07
21520;BME280;10921;53.614;9.882;2023-08-24T09:20:06;101517.50;;;25.82;53.54
21520;BME280;10921;53.614;9.882;2023-08-24T09:22:37;101524.34;;;25.91;52.46
21520;BME280;10921;53.614;9.882;2023-08-24T09:25:04;101519.75;;;26.10;52.67
21520;BME280;10921;53.614;9.882;2023-08-24T09:27:34;101506.97;;;26.22;53.85
21520;BME280;10921;53.614;9.882;2023-08-24T09:30:00;101522.34;;;26.42;53.04
21520;BME280;10921;53.614;9.882;2023-08-24T09:32:29;101519.94;;;26.63;52.66
21520;BME280;10921;53.614;9.882;2023-08-24T09:34:56;101516.94;;;26.83;52.80
21520;BME280;10921;53.614;9.882;2023-08-24T09:37:23;101524.50;;;27.00;51.48
21520;BME280;10921;53.614;9.882;2023-08-24T09:40:01;101522.56;;;27.18;51.80
21520;BME280;10921;53.614;9.882;2023-08-24T09:42:27;101513.50;;;27.18;50.46
21520;BME280;10921;53.614;9.882;2023-08-24T09:45:02;101505.75;;;27.26;50.76
21520;BME280;10921;53.614;9.882;2023-08-24T09:47:30;101508.72;;;27.37;49.41
21520;BME280;10921;53.614;9.882;2023-08-24T09:49:57;101515.06;;;27.37;49.81
21520;BME280;10921;53.614;9.882;2023-08-24T09:52:26;101491.00;;;27.39;50.10
21520;BME280;10921;53.614;9.882;2023-08-24T09:55:01;101493.72;;;27.51;51.12
21520;BME280;10921;53.614;9.882;2023-08-24T09:57:34;101451.91;;;27.44;50.27
21520;BME280;10921;53.614;9.882;2023-08-24T10:00:03;101483.75;;;27.80;49.50
21520;BME280;10921;53.614;9.882;2023-08-24T10:02:38;101490.50;;;28.00;47.83
21520;BME280;10921;53.614;9.882;2023-08-24T10:05:09;101474.59;;;28.38;48.19
21520;BME280;10921;53.614;9.882;2023-08-24T10:07:56;101472.00;;;28.76;46.59
21520;BME280;10921;53.614;9.882;2023-08-24T10:10:25;101467.50;;;28.98;46.22
21520;BME280;10921;53.614;9.882;2023-08-24T10:12:57;101464.78;;;29.15;45.69
21520;BME280;10921;53.614;9.882;2023-08-24T10:15:26;101439.84;;;29.22;45.65
21520;BME280;10921;53.614;9.882;2023-08-24T10:17:53;101456.00;;;29.35;44.69
21520;BME280;10921;53.614;9.882;2023-08-24T10:20:21;101452.38;;;29.46;46.67
21520;BME280;10921;53.614;9.882;2023-08-24T10:22:48;101464.19;;;29.63;44.45
21520;BME280;10921;53.614;9.882;2023-08-24T10:25:16;101419.69;;;29.50;44.31
21520;BME280;10921;53.614;9.882;2023-08-24T10:27:45;101441.44;;;29.90;43.59
21520;BME280;10921;53.614;9.882;2023-08-24T10:30:14;101425.72;;;30.07;44.37
21520;BME280;10921;53.614;9.882;2023-08-24T10:32:42;101410.72;;;30.20;43.46
21520;BME280;10921;53.614;9.882;2023-08-24T10:35:09;101409.56;;;30.37;43.36
21520;BME280;10921;53.614;9.882;2023-08-24T10:37:39;101418.09;;;30.95;45.12
21520;BME280;10921;53.614;9.882;2023-08-24T10:40:06;101420.31;;;30.66;42.62
21520;BME280;10921;53.614;9.882;2023-08-24T10:42:44;101380.88;;;30.60;42.05
21520;BME280;10921;53.614;9.882;2023-08-24T10:45:13;101413.75;;;30.72;41.66
21520;BME280;10921;53.614;9.882;2023-08-24T10:47:46;101419.06;;;30.78;41.62
21520;BME280;10921;53.614;9.882;2023-08-24T10:50:14;101411.09;;;30.82;41.86
21520;BME280;10921;53.614;9.882;2023-08-24T10:52:43;101413.53;;;30.78;41.82
21520;BME280;10921;53.614;9.882;2023-08-24T10:55:26;101399.31;;;31.24;43.58
21520;BME280;10921;53.614;9.882;2023-08-24T10:57:57;101403.78;;;30.98;41.03
21520;BME280;10921;53.614;9.882;2023-08-24T11:00:28;101405.28;;;31.10;42.37
21520;BME280;10921;53.614;9.882;2023-08-24T11:02:56;101408.38;;;31.19;40.93
21520;BME280;10921;53.614;9.882;2023-08-24T11:05:28;101402.50;;;31.47;41.54
21520;BME280;10921;53.614;9.882;2023-08-24T11:08:02;101355.03;;;31.40;40.25
21520;BME280;10921;53.614;9.882;2023-08-24T11:10:33;101394.78;;;32.02;40.50
21520;BME280;10921;53.614;9.882;2023-08-24T11:18:26;101357.63;;;32.60;39.30
21520;BME280;10921;53.614;9.882;2023-08-24T11:21:05;101350.44;;;32.59;37.86
21520;BME280;10921;53.614;9.882;2023-08-24T11:23:32;101331.66;;;32.36;37.08
21520;BME280;10921;53.614;9.882;2023-08-24T11:26:00;101349.34;;;32.45;36.89
21520;BME280;10921;53.614;9.882;2023-08-24T11:28:28;101350.69;;;32.42;38.29
21520;BME280;10921;53.614;9.882;2023-08-24T11:30:56;101347.94;;;32.32;39.17
21520;BME280;10921;53.614;9.882;2023-08-24T11:33:33;101327.50;;;32.33;38.32
21520;BME280;10921;53.614;9.882;2023-08-24T11:36:03;101326.06;;;32.10;38.61
21520;BME280;10921;53.614;9.882;2023-08-24T11:41:14;101350.16;;;32.40;38.04
21520;BME280;10921;53.614;9.882;2023-08-24T11:43:42;101336.63;;;32.44;35.78
21520;BME280;10921;53.614;9.882;2023-08-24T11:46:09;101322.81;;;32.49;37.04
21520;BME280;10921;53.614;9.882;2023-08-24T11:48:37;101256.81;;;32.22;37.00
21520;BME280;10921;53.614;9.882;2023-08-24T11:51:10;101310.97;;;32.79;37.60
21520;BME280;10921;53.614;9.882;2023-08-24T11:53:43;101308.19;;;32.84;36.54
21520;BME280;10921;53.614;9.882;2023-08-24T11:56:13;101298.25;;;32.83;36.83
21520;BME280;10921;53.614;9.882;2023-08-24T11:58:41;101278.34;;;32.76;36.35
21520;BME280;10921;53.614;9.882;2023-08-24T12:01:08;101281.13;;;32.81;35.84
21520;BME280;10921;53.614;9.882;2023-08-24T12:03:36;101279.72;;;32.73;36.39
21520;BME280;10921;53.614;9.882;2023-08-24T12:06:10;101246.56;;;32.63;37.62
21520;BME280;10921;53.614;9.882;2023-08-24T12:08:42;101186.94;;;32.16;36.54
21520;BME280;10921;53.614;9.882;2023-08-24T12:11:19;101253.47;;;32.56;37.45
21520;BME280;10921;53.614;9.882;2023-08-24T12:13:48;101248.25;;;32.49;36.27
21520;BME280;10921;53.614;9.882;2023-08-24T12:16:20;101255.13;;;32.57;37.50
21520;BME280;10921;53.614;9.882;2023-08-24T12:18:51;101249.03;;;32.55;37.53
21520;BME280;10921;53.614;9.882;2023-08-24T12:21:21;101252.63;;;32.60;38.32
21520;BME280;10921;53.614;9.882;2023-08-24T12:24:03;101253.19;;;32.77;37.49
21520;BME280;10921;53.614;9.882;2023-08-24T12:26:33;101247.41;;;32.74;37.13
21520;BME280;10921;53.614;9.882;2023-08-24T12:29:03;101252.38;;;32.82;36.24
21520;BME280;10921;53.614;9.882;2023-08-24T12:31:30;101249.84;;;32.91;36.65
21520;BME280;10921;53.614;9.882;2023-08-24T12:34:15;101259.47;;;33.13;37.53
21520;BME280;10921;53.614;9.882;2023-08-24T12:36:42;101204.56;;;32.76;36.44
21520;BME280;10921;53.614;9.882;2023-08-24T12:39:11;101254.50;;;33.05;36.47
21520;BME280;10921;53.614;9.882;2023-08-24T12:41:41;101247.63;;;32.98;37.44
21520;BME280;10921;53.614;9.882;2023-08-24T12:44:08;101213.13;;;32.75;39.38
21520;BME280;10921;53.614;9.882;2023-08-24T12:46:38;101149.94;;;32.38;36.97
21520;BME280;10921;53.614;9.882;2023-08-24T12:49:04;101196.28;;;32.66;36.93
21520;BME280;10921;53.614;9.882;2023-08-24T12:51:31;101207.00;;;32.93;37.48
21520;BME280;10921;53.614;9.882;2023-08-24T12:53:57;101197.38;;;32.80;38.38
21520;BME280;10921;53.614;9.882;2023-08-24T12:56:24;101188.53;;;32.73;40.85
21520;BME280;10921;53.614;9.882;2023-08-24T12:58:51;101138.28;;;32.56;39.49
21520;BME280;10921;53.614;9.882;2023-08-24T13:01:17;101176.31;;;32.90;39.79
21520;BME280;10921;53.614;9.882;2023-08-24T13:03:44;101095.78;;;32.47;38.98
21520;BME280;10921;53.614;9.882;2023-08-24T13:06:10;101165.00;;;32.91;37.93